Time;durP1;ratioP1;P1;durP2;ratioP2;P2;SDS_P1;SDS_P2;PMS_P1;PMS_P2;Temp;Humidity;BMP_temperature;BMP_pressure;BME280_temperature;BME280_humidity;BME280_pressure;Samples;Min_cycle;Max_cycle;Signal;HPM_P1;HPM_P2
2023/08/04 00:00:10;;;;;;;12.02;8.35;;;21.00;99.90;;;;;;5075863;28;20028;-58
2023/08/04 00:02:39;;;;;;;14.38;8.00;;;21.00;99.90;;;;;;5075891;28;20038;-58
2023/08/04 00:05:06;;;;;;;14.77;8.38;;;21.00;99.90;;;;;;5075994;28;20041;-58
2023/08/04 00:07:36;;;;;;;11.23;7.68;;;20.90;99.90;;;;;;5075942;28;20381;-58
2023/08/04 00:10:05;;;;;;;14.60;7.57;;;20.90;99.90;;;;;;5075934;28;20094;-58
2023/08/04 00:12:31;;;;;;;13.38;8.27;;;20.90;99.90;;;;;;5075810;28;20029;-58
2023/08/04 00:14:57;;;;;;;11.05;7.60;;;20.80;99.90;;;;;;5075638;28;20028;-58
2023/08/04 00:17:25;;;;;;;12.50;8.05;;;20.80;99.90;;;;;;5075740;28;20024;-58
2023/08/04 00:19:51;;;;;;;12.48;7.78;;;20.80;99.90;;;;;;5075872;28;20108;-58
2023/08/04 00:22:17;;;;;;;11.48;7.50;;;20.80;99.90;;;;;;5086857;28;20059;-58
2023/08/04 00:24:42;;;;;;;11.10;7.68;;;20.70;99.90;;;;;;5095815;28;20024;-58
2023/08/04 00:27:08;;;;;;;10.38;7.65;;;20.70;99.90;;;;;;5095933;28;20469;-58
2023/08/04 00:29:35;;;;;;;10.98;7.82;;;20.70;99.90;;;;;;5077345;28;20028;-58
2023/08/04 00:32:03;;;;;;;12.10;8.32;;;20.70;99.90;;;;;;5096094;28;20020;-58
2023/08/04 00:34:29;;;;;;;12.70;8.07;;;20.70;99.90;;;;;;5095891;28;20484;-58
2023/08/04 00:36:54;;;;;;;12.02;7.72;;;20.70;99.90;;;;;;5077370;28;20062;-58
2023/08/04 00:39:21;;;;;;;13.25;7.90;;;20.70;99.90;;;;;;5095605;28;20111;-58
2023/08/04 00:41:47;;;;;;;9.88;7.82;;;20.60;99.90;;;;;;5095711;28;20103;-58
2023/08/04 00:44:12;;;;;;;14.52;7.80;;;20.60;99.90;;;;;;5077079;28;20070;-58
2023/08/04 00:46:39;;;;;;;12.15;7.47;;;20.60;99.90;;;;;;5095420;28;20045;-58
2023/08/04 00:49:07;;;;;;;10.50;7.03;;;20.60;99.90;;;;;;5095493;28;20024;-58
2023/08/04 00:51:33;;;;;;;12.32;7.35;;;20.70;99.90;;;;;;5094943;28;20095;-58
2023/08/04 00:54:01;;;;;;;10.05;7.88;;;20.60;99.90;;;;;;5095478;28;20024;-58
2023/08/04 00:56:31;;;;;;;12.32;7.85;;;20.70;99.90;;;;;;5095371;28;20020;-58
2023/08/04 00:59:00;;;;;;;8.85;6.82;;;20.70;99.90;;;;;;5095098;28;20059;-58
2023/08/04 01:01:25;;;;;;;12.85;8.27;;;20.60;99.90;;;;;;5095239;28;20028;-58
2023/08/04 01:03:52;;;;;;;13.40;7.45;;;20.60;99.90;;;;;;5095114;28;20030;-58
2023/08/04 01:06:27;;;;;;;11.02;8.27;;;20.60;99.90;;;;;;5076775;28;20032;-58
2023/08/04 01:09:06;;;;;;;10.93;7.40;;;20.60;99.90;;;;;;5076825;28;20047;-58
2023/08/04 01:11:42;;;;;;;13.98;7.95;;;20.60;99.90;;;;;;5094758;28;20059;-58
2023/08/04 01:14:10;;;;;;;10.25;7.85;;;20.60;99.90;;;;;;5094948;28;20028;-58
2023/08/04 01:16:36;;;;;;;9.20;7.68;;;20.50;99.90;;;;;;5110609;28;20027;-58
2023/08/04 01:19:02;;;;;;;9.60;7.20;;;20.50;99.90;;;;;;5076881;28;20419;-58
2023/08/04 01:21:39;;;;;;;12.50;8.30;;;20.40;99.90;;;;;;5094800;28;20034;-58
2023/08/04 01:24:05;;;;;;;10.95;8.07;;;20.40;99.90;;;;;;5076764;28;20035;-58
2023/08/04 01:26:31;;;;;;;12.82;8.07;;;20.40;99.90;;;;;;5076641;28;20145;-58
2023/08/04 01:28:58;;;;;;;16.10;8.23;;;20.30;99.90;;;;;;5094683;28;20020;-58
2023/08/04 01:31:24;;;;;;;10.77;8.48;;;20.30;99.90;;;;;;5094785;28;20031;-58
2023/08/04 01:33:50;;;;;;;14.25;8.15;;;20.30;99.90;;;;;;5094816;28;20154;-58
2023/08/04 01:36:18;;;;;;;12.32;8.02;;;20.30;99.90;;;;;;5076377;28;20087;-58
2023/08/04 01:38:44;;;;;;;10.18;7.60;;;20.40;99.90;;;;;;5076593;28;20040;-58
2023/08/04 01:41:10;;;;;;;10.68;7.95;;;20.30;99.90;;;;;;5094539;28;20048;-58
2023/08/04 01:43:36;;;;;;;11.40;7.90;;;20.30;99.90;;;;;;5094730;28;20028;-58
2023/08/04 01:46:01;;;;;;;10.93;8.13;;;20.30;99.90;;;;;;5076601;28;20032;-58
2023/08/04 01:48:27;;;;;;;13.45;8.80;;;20.20;99.90;;;;;;5094553;28;20032;-58
2023/08/04 01:50:53;;;;;;;13.30;7.85;;;20.20;99.90;;;;;;5094522;28;20036;-58
2023/08/04 01:53:19;;;;;;;13.57;8.38;;;20.20;99.90;;;;;;5094630;28;20048;-58
2023/08/04 01:55:47;;;;;;;11.23;8.32;;;20.10;99.90;;;;;;5094346;28;20527;-58
2023/08/04 01:58:13;;;;;;;18.33;9.27;;;20.10;99.90;;;;;;5076292;28;20063;-58
2023/08/04 02:00:39;;;;;;;12.77;8.30;;;20.10;99.90;;;;;;5076290;28;20036;-58
2023/08/04 02:03:05;;;;;;;12.02;8.35;;;20.10;99.90;;;;;;5076207;28;20036;-58
2023/08/04 02:05:32;;;;;;;12.20;8.32;;;20.10;99.90;;;;;;5098266;28;20051;-58
2023/08/04 02:07:58;;;;;;;11.95;8.30;;;20.10;99.90;;;;;;5080234;28;20313;-58
2023/08/04 02:10:28;;;;;;;15.00;8.97;;;20.10;99.90;;;;;;5080239;28;20027;-58
2023/08/04 02:12:54;;;;;;;13.70;9.05;;;20.00;99.90;;;;;;5098198;28;20257;-58
2023/08/04 02:15:22;;;;;;;16.70;10.02;;;20.10;99.90;;;;;;5080206;28;20039;-58
2023/08/04 02:17:47;;;;;;;15.15;11.40;;;20.00;99.90;;;;;;5098336;28;20032;-58
2023/08/04 02:20:13;;;;;;;18.00;11.55;;;20.00;99.90;;;;;;5080198;28;20090;-58
2023/08/04 02:22:39;;;;;;;17.75;13.30;;;20.00;99.90;;;;;;5097972;28;20032;-58
2023/08/04 02:25:06;;;;;;;18.63;14.38;;;20.00;99.90;;;;;;5098065;28;20387;-58
2023/08/04 02:27:32;;;;;;;22.23;14.02;;;19.90;99.90;;;;;;5098182;28;20082;-58
2023/08/04 02:29:57;;;;;;;19.45;14.23;;;19.90;99.90;;;;;;5098107;28;20024;-58
2023/08/04 02:32:23;;;;;;;19.98;15.35;;;19.90;99.90;;;;;;5098030;28;20471;-58
2023/08/04 02:34:51;;;;;;;21.67;16.42;;;19.90;99.90;;;;;;5098249;28;20466;-58
2023/08/04 02:37:16;;;;;;;19.08;15.20;;;19.80;99.90;;;;;;5098041;28;20028;-58
2023/08/04 02:39:42;;;;;;;22.13;15.13;;;19.80;99.90;;;;;;5098044;28;20024;-58
2023/08/04 02:42:08;;;;;;;19.58;13.68;;;19.80;99.90;;;;;;5079773;28;20389;-58
2023/08/04 02:44:36;;;;;;;18.15;12.98;;;19.80;99.90;;;;;;5097809;28;20121;-58
2023/08/04 02:47:02;;;;;;;18.63;11.82;;;19.80;99.90;;;;;;5097691;28;20031;-58
2023/08/04 02:49:28;;;;;;;15.90;11.35;;;19.70;99.90;;;;;;5098069;28;20032;-58
2023/08/04 02:51:54;;;;;;;15.45;11.57;;;19.70;99.90;;;;;;5097613;28;20047;-58
2023/08/04 02:54:20;;;;;;;20.08;12.48;;;19.70;99.90;;;;;;5079441;28;20027;-58
2023/08/04 02:56:46;;;;;;;14.15;10.23;;;19.70;99.90;;;;;;5097784;28;20032;-58
2023/08/04 02:59:12;;;;;;;15.95;11.25;;;19.70;99.90;;;;;;5097397;28;20056;-58
2023/08/04 03:01:38;;;;;;;15.68;11.55;;;19.70;99.90;;;;;;5097530;28;20063;-58
2023/08/04 03:04:04;;;;;;;17.65;11.70;;;19.60;99.90;;;;;;5097401;28;20516;-58
2023/08/04 03:06:30;;;;;;;14.23;11.98;;;19.60;99.90;;;;;;5097512;28;20493;-58
2023/08/04 03:08:55;;;;;;;12.85;10.57;;;19.60;99.90;;;;;;5097332;28;20028;-58
2023/08/04 03:11:21;;;;;;;15.00;11.32;;;19.60;99.90;;;;;;5097224;28;20035;-58
2023/08/04 03:13:47;;;;;;;13.88;11.00;;;19.60;99.90;;;;;;5097173;28;20035;-58
2023/08/04 03:16:13;;;;;;;14.70;9.88;;;19.50;99.90;;;;;;5096995;28;20038;-58
2023/08/04 03:18:39;;;;;;;16.63;11.25;;;19.50;99.90;;;;;;5097351;28;20137;-58
2023/08/04 03:21:05;;;;;;;14.40;10.10;;;19.50;99.90;;;;;;5097067;28;20026;-58
2023/08/04 03:23:31;;;;;;;14.95;10.50;;;19.50;99.90;;;;;;5097176;28;20477;-58
2023/08/04 03:25:57;;;;;;;13.50;9.70;;;19.50;99.90;;;;;;5097432;28;20028;-58
2023/08/04 03:28:23;;;;;;;15.65;9.90;;;19.60;99.90;;;;;;5078802;28;20119;-58
2023/08/04 03:30:48;;;;;;;15.02;9.63;;;19.50;99.90;;;;;;5097047;28;20020;-58
2023/08/04 03:33:14;;;;;;;12.40;9.75;;;19.50;99.90;;;;;;5096976;28;20020;-58
2023/08/04 03:35:41;;;;;;;15.13;9.88;;;19.50;99.90;;;;;;5096682;28;20024;-58
2023/08/04 03:38:07;;;;;;;11.80;8.90;;;19.40;99.90;;;;;;5096957;28;20070;-58
2023/08/04 03:40:32;;;;;;;13.45;9.13;;;19.40;99.90;;;;;;5096860;28;20028;-58
2023/08/04 03:42:58;;;;;;;13.40;9.23;;;19.40;99.90;;;;;;5096779;28;20028;-58
2023/08/04 03:45:24;;;;;;;12.93;9.50;;;19.40;99.90;;;;;;5096621;28;20553;-58
2023/08/04 03:47:50;;;;;;;11.73;9.30;;;19.40;99.90;;;;;;5096631;28;20109;-58
2023/08/04 03:50:16;;;;;;;13.80;8.82;;;19.40;99.90;;;;;;5096676;28;20028;-58
2023/08/04 03:52:42;;;;;;;14.75;8.50;;;19.30;99.90;;;;;;5096588;28;20028;-58
2023/08/04 03:55:08;;;;;;;17.92;9.48;;;19.40;99.90;;;;;;5096547;28;20055;-58
2023/08/04 03:57:34;;;;;;;13.82;9.30;;;19.40;99.90;;;;;;5096450;28;20020;-58
2023/08/04 04:00:01;;;;;;;18.65;8.52;;;19.50;99.90;;;;;;5096292;28;20021;-58
2023/08/04 04:02:27;;;;;;;13.23;8.85;;;19.50;99.90;;;;;;5096689;28;20024;-58
2023/08/04 04:04:52;;;;;;;13.07;8.60;;;19.50;99.90;;;;;;5096182;28;20066;-58
2023/08/04 04:07:18;;;;;;;15.48;8.65;;;19.50;99.90;;;;;;5096320;28;20436;-58
2023/08/04 04:09:44;;;;;;;14.05;9.23;;;19.50;99.90;;;;;;5096193;28;20032;-58
2023/08/04 04:12:10;;;;;;;13.57;8.80;;;19.50;99.90;;;;;;5095877;28;20039;-58
2023/08/04 04:14:36;;;;;;;10.18;8.27;;;19.50;99.90;;;;;;5096090;28;20035;-58
2023/08/04 04:17:02;;;;;;;11.65;8.77;;;19.60;99.90;;;;;;5095973;28;20028;-58
2023/08/04 04:19:28;;;;;;;12.48;9.10;;;19.70;99.90;;;;;;5096004;28;20059;-58
2023/08/04 04:21:54;;;;;;;13.95;8.88;;;19.70;99.90;;;;;;5087870;28;20484;-58
2023/08/04 04:24:20;;;;;;;13.63;9.43;;;19.70;99.90;;;;;;5075394;28;20040;-58
2023/08/04 04:26:46;;;;;;;20.65;9.57;;;19.70;99.90;;;;;;5074971;28;20033;-58
2023/08/04 04:29:11;;;;;;;21.20;9.90;;;19.80;99.90;;;;;;5075259;28;20036;-58
2023/08/04 04:31:37;;;;;;;19.83;9.90;;;19.80;99.90;;;;;;5075482;28;20040;-58
2023/08/04 04:34:03;;;;;;;16.35;8.93;;;19.80;99.90;;;;;;5075715;28;20028;-58
2023/08/04 04:36:29;;;;;;;15.07;9.60;;;19.90;99.90;;;;;;5075324;28;20020;-58
2023/08/04 04:38:55;;;;;;;17.55;9.48;;;19.90;99.90;;;;;;5075238;28;20039;-58
2023/08/04 04:41:21;;;;;;;14.10;9.38;;;19.90;99.90;;;;;;5075150;28;20039;-58
2023/08/04 04:43:47;;;;;;;17.98;9.70;;;20.00;99.90;;;;;;5075309;28;20029;-58
2023/08/04 04:46:13;;;;;;;17.23;9.60;;;20.10;99.90;;;;;;5075141;28;20036;-58
2023/08/04 04:48:41;;;;;;;18.90;8.75;;;20.20;99.90;;;;;;5074973;28;20024;-58
2023/08/04 04:51:07;;;;;;;14.30;8.80;;;20.20;99.90;;;;;;5074991;28;20020;-58
2023/08/04 04:53:32;;;;;;;14.10;8.80;;;20.30;99.90;;;;;;5074899;28;20378;-58
2023/08/04 04:55:58;;;;;;;11.20;8.30;;;20.40;99.90;;;;;;5075065;28;20404;-58
2023/08/04 04:58:24;;;;;;;12.98;8.75;;;20.50;99.90;;;;;;5074915;28;20478;-58
2023/08/04 05:00:50;;;;;;;10.70;8.32;;;20.60;99.90;;;;;;5074470;28;20351;-58
2023/08/04 05:03:16;;;;;;;15.15;8.88;;;20.70;99.90;;;;;;5074558;28;20025;-58
2023/08/04 05:05:43;;;;;;;17.70;8.90;;;20.70;99.90;;;;;;5091395;28;20402;-58
2023/08/04 05:08:09;;;;;;;22.02;10.77;;;20.80;99.90;;;;;;5094991;28;20107;-58
2023/08/04 05:10:35;;;;;;;13.80;8.55;;;20.90;99.90;;;;;;5094898;28;20062;-58
2023/08/04 05:13:01;;;;;;;20.30;10.30;;;21.00;99.90;;;;;;5094656;28;20024;-58
2023/08/04 05:15:27;;;;;;;18.20;9.60;;;21.20;99.90;;;;;;5094823;28;20016;-58
2023/08/04 05:17:53;;;;;;;20.60;10.15;;;21.30;99.90;;;;;;5094948;28;20052;-58
2023/08/04 05:20:19;;;;;;;21.90;10.05;;;21.40;99.90;;;;;;5076804;28;20032;-58
2023/08/04 05:22:44;;;;;;;18.27;9.18;;;21.50;99.90;;;;;;5094564;28;20024;-58
2023/08/04 05:25:10;;;;;;;24.02;9.95;;;21.60;99.90;;;;;;5093813;28;20099;-58
2023/08/04 05:27:36;;;;;;;18.20;9.15;;;21.70;99.90;;;;;;5092884;28;20036;-58
2023/08/04 05:30:06;;;;;;;20.27;9.23;;;21.90;99.90;;;;;;5090998;28;20023;-58
2023/08/04 05:32:32;;;;;;;17.45;8.98;;;22.00;99.90;;;;;;5088578;28;20048;-58
2023/08/04 05:34:58;;;;;;;20.80;8.85;;;22.10;99.90;;;;;;5095196;28;20031;-58
2023/08/04 05:37:23;;;;;;;24.65;9.82;;;22.20;99.90;;;;;;5095016;28;20028;-58
2023/08/04 05:39:50;;;;;;;21.77;10.40;;;22.30;99.90;;;;;;5094261;28;20104;-58
2023/08/04 05:42:16;;;;;;;21.77;9.95;;;22.30;99.90;;;;;;5095078;28;20479;-58
2023/08/04 05:44:41;;;;;;;28.08;12.15;;;22.50;99.90;;;;;;5094927;28;20056;-58
2023/08/04 05:47:07;;;;;;;19.20;9.38;;;22.60;99.90;;;;;;5092010;28;20385;-58
2023/08/04 05:49:33;;;;;;;22.52;9.20;;;22.80;99.90;;;;;;5094854;28;20024;-58
2023/08/04 05:51:59;;;;;;;16.75;10.07;;;22.90;99.90;;;;;;5095096;28;20029;-58
2023/08/04 05:54:25;;;;;;;23.02;11.15;;;23.00;99.90;;;;;;5093576;28;20055;-58
2023/08/04 05:57:07;;;;;;;22.02;11.88;;;23.10;99.90;;;;;;5089375;28;20377;-58
2023/08/04 05:59:33;;;;;;;18.50;10.75;;;23.20;99.90;;;;;;5088461;28;20036;-58
2023/08/04 06:01:59;;;;;;;23.13;9.70;;;23.30;99.90;;;;;;5090288;28;20147;-58
2023/08/04 06:04:25;;;;;;;16.10;10.15;;;23.40;99.90;;;;;;5080619;28;20504;-58
2023/08/04 06:06:51;;;;;;;15.82;8.68;;;23.50;99.90;;;;;;5093802;28;20020;-58
2023/08/04 06:09:19;;;;;;;17.55;9.75;;;23.50;99.90;;;;;;5093959;28;20032;-58
2023/08/04 06:11:48;;;;;;;21.52;9.35;;;23.50;99.90;;;;;;5091987;28;20024;-58
2023/08/04 06:14:14;;;;;;;18.48;8.55;;;23.70;99.90;;;;;;5092500;28;20032;-58
2023/08/04 06:16:43;;;;;;;24.17;9.63;;;23.80;99.90;;;;;;5093547;28;20031;-58
2023/08/04 06:19:09;;;;;;;15.20;8.73;;;24.00;99.90;;;;;;5093299;28;20032;-58
2023/08/04 06:21:38;;;;;;;23.17;9.20;;;24.10;99.90;;;;;;5091194;28;20423;-58
2023/08/04 06:24:04;;;;;;;17.98;9.00;;;24.10;99.90;;;;;;5094117;28;20151;-58
2023/08/04 06:26:30;;;;;;;22.92;10.55;;;24.30;99.90;;;;;;5093773;28;20032;-58
2023/08/04 06:28:57;;;;;;;24.83;11.35;;;24.50;99.90;;;;;;5093294;28;20111;-58
2023/08/04 06:31:23;;;;;;;24.95;12.82;;;24.70;99.90;;;;;;5093445;28;20028;-58
2023/08/04 06:33:49;;;;;;;27.55;11.73;;;24.80;99.90;;;;;;5093024;28;20023;-58
2023/08/04 06:36:15;;;;;;;20.85;10.25;;;25.00;99.90;;;;;;5093100;28;20477;-58
2023/08/04 06:38:41;;;;;;;24.20;9.77;;;25.10;99.90;;;;;;5093377;28;20106;-58
2023/08/04 06:41:09;;;;;;;19.73;8.93;;;25.20;99.90;;;;;;5093475;28;20031;-58
2023/08/04 06:43:38;;;;;;;28.45;9.93;;;25.50;99.90;;;;;;5092430;28;20027;-58
2023/08/04 06:46:04;;;;;;;27.88;9.38;;;25.60;99.90;;;;;;5093102;28;20401;-58
2023/08/04 06:48:30;;;;;;;21.48;9.00;;;25.80;99.90;;;;;;5093193;28;20028;-58
2023/08/04 06:50:56;;;;;;;32.00;9.98;;;26.00;99.90;;;;;;5096984;28;20111;-58
2023/08/04 06:53:21;;;;;;;27.85;8.98;;;26.20;99.90;;;;;;5098179;28;20028;-58
2023/08/04 06:55:47;;;;;;;24.17;11.05;;;26.30;99.90;;;;;;5079932;28;20036;-58
2023/08/04 06:58:13;;;;;;;21.38;8.57;;;26.50;99.90;;;;;;5098155;28;20024;-58
2023/08/04 07:00:39;;;;;;;22.15;8.20;;;26.70;99.90;;;;;;5096661;28;20042;-58
2023/08/04 07:03:05;;;;;;;18.45;8.48;;;26.90;99.90;;;;;;5097863;28;20032;-58
2023/08/04 07:05:31;;;;;;;15.93;7.45;;;27.00;99.90;;;;;;5097776;28;20044;-58
2023/08/04 07:07:57;;;;;;;12.57;7.15;;;27.20;99.90;;;;;;5097134;28;20119;-58
2023/08/04 07:10:23;;;;;;;15.20;6.78;;;27.50;99.90;;;;;;5097392;28;20071;-58
2023/08/04 07:12:49;;;;;;;17.77;8.32;;;27.70;99.90;;;;;;5095714;28;20028;-58
2023/08/04 07:15:18;;;;;;;20.67;6.97;;;28.10;99.80;;;;;;5088773;28;20079;-58
2023/08/04 07:17:44;;;;;;;10.32;5.88;;;28.30;99.90;;;;;;5090569;28;20032;-58
2023/08/04 07:20:11;;;;;;;16.38;7.13;;;28.50;98.00;;;;;;5077468;28;20477;-58
2023/08/04 07:22:37;;;;;;;12.32;6.15;;;28.80;96.70;;;;;;5090247;28;20082;-58
2023/08/04 07:25:03;;;;;;;14.23;6.55;;;29.10;95.20;;;;;;5097463;28;20055;-58
2023/08/04 07:27:29;;;;;;;14.88;6.10;;;29.40;93.60;;;;;;5096461;28;20374;-58
2023/08/04 07:29:55;;;;;;;19.23;6.70;;;29.70;93.50;;;;;;5088092;28;20029;-58
2023/08/04 07:32:21;;;;;;;13.00;6.18;;;29.80;92.10;;;;;;5081040;28;20087;-58
2023/08/04 07:34:47;;;;;;;10.35;5.38;;;30.30;91.50;;;;;;5096967;28;20107;-58
2023/08/04 07:37:13;;;;;;;11.68;5.72;;;30.60;87.60;;;;;;5096885;28;20511;-58
2023/08/04 07:39:39;;;;;;;10.95;5.60;;;30.80;83.90;;;;;;5096451;28;20037;-58
2023/08/04 07:42:05;;;;;;;7.80;5.18;;;31.00;83.90;;;;;;5096667;28;20369;-58
2023/08/04 07:44:36;;;;;;;9.73;5.07;;;31.30;89.90;;;;;;5059901;28;20028;-58
2023/08/04 07:47:02;;;;;;;17.15;5.60;;;31.60;76.10;;;;;;5094792;28;20028;-58
2023/08/04 07:49:34;;;;;;;11.07;4.78;;;31.60;71.20;;;;;;5094147;28;20031;-58
2023/08/04 07:52:00;;;;;;;5.93;3.97;;;32.10;70.70;;;;;;5097277;28;20107;-58
2023/08/04 07:54:26;;;;;;;6.65;4.38;;;32.30;63.50;;;;;;5096789;28;20055;-58
2023/08/04 07:56:55;;;;;;;7.82;4.72;;;32.40;63.20;;;;;;5095419;28;20016;-58
2023/08/04 07:59:21;;;;;;;7.30;3.92;;;32.60;59.80;;;;;;5095216;28;20028;-58
2023/08/04 08:01:50;;;;;;;8.95;4.78;;;32.80;60.30;;;;;;5094412;28;20020;-58
2023/08/04 08:04:16;;;;;;;17.17;5.33;;;33.00;58.20;;;;;;5095342;28;20039;-58
2023/08/04 08:06:45;;;;;;;11.15;4.78;;;33.20;58.50;;;;;;5095322;28;20062;-58
2023/08/04 08:09:12;;;;;;;16.88;5.72;;;33.40;57.40;;;;;;5090883;28;20500;-58
2023/08/04 08:11:38;;;;;;;7.68;4.38;;;33.70;57.40;;;;;;5095700;28;20120;-58
2023/08/04 08:14:16;;;;;;;6.03;4.15;;;33.80;56.80;;;;;;5095057;28;20480;-58
2023/08/04 08:16:42;;;;;;;16.83;5.47;;;34.30;61.50;;;;;;5083391;28;20028;-58
2023/08/04 08:19:09;;;;;;;8.75;4.47;;;34.60;56.40;;;;;;5095483;28;20035;-58
2023/08/04 08:21:36;;;;;;;8.77;3.97;;;34.80;55.40;;;;;;5095018;28;20100;-58
2023/08/04 08:24:02;;;;;;;9.68;4.60;;;34.60;49.70;;;;;;5093514;28;20024;-58
2023/08/04 08:26:28;;;;;;;6.85;4.53;;;35.00;49.70;;;;;;5093338;28;20032;-58
2023/08/04 08:28:54;;;;;;;11.85;5.03;;;34.80;49.20;;;;;;5092918;28;20038;-58
2023/08/04 08:31:20;;;;;;;5.10;3.65;;;35.20;46.40;;;;;;5094941;28;20024;-58
2023/08/04 08:33:53;;;;;;;8.13;4.10;;;35.20;46.00;;;;;;5094318;28;20462;-58
2023/08/04 08:36:23;;;;;;;10.75;4.75;;;35.30;44.60;;;;;;5094744;28;20449;-58
2023/08/04 08:38:50;;;;;;;9.02;4.70;;;35.60;44.70;;;;;;5092328;28;20028;-58
2023/08/04 08:41:17;;;;;;;6.88;4.38;;;35.50;42.80;;;;;;5094737;28;20050;-58
2023/08/04 08:43:46;;;;;;;6.82;4.28;;;35.80;45.80;;;;;;5092360;28;20030;-58
2023/08/04 08:46:13;;;;;;;10.30;4.97;;;35.90;41.00;;;;;;5094924;28;20075;-58
2023/08/04 08:48:42;;;;;;;7.85;3.80;;;36.00;41.50;;;;;;5094134;28;20032;-58
2023/08/04 08:51:14;;;;;;;6.77;4.50;;;36.10;41.80;;;;;;5075568;28;20056;-58
2023/08/04 08:53:42;;;;;;;6.57;4.20;;;36.10;41.80;;;;;;5087822;28;20024;-58
2023/08/04 08:56:10;;;;;;;8.73;5.28;;;36.10;42.00;;;;;;5088898;28;20036;-58
2023/08/04 08:58:37;;;;;;;9.60;4.45;;;36.30;42.00;;;;;;5094358;28;20024;-58
2023/08/04 09:01:03;;;;;;;12.32;5.75;;;36.30;41.60;;;;;;5104503;28;20034;-58
2023/08/04 09:03:33;;;;;;;7.78;4.35;;;36.50;43.00;;;;;;5114626;28;20381;-58
2023/08/04 09:06:00;;;;;;;7.43;4.88;;;36.50;41.40;;;;;;5109116;28;20036;-58
2023/08/04 09:08:27;;;;;;;6.40;4.40;;;36.50;41.20;;;;;;5114569;28;20019;-58
2023/08/04 09:10:53;;;;;;;10.68;5.00;;;36.40;43.90;;;;;;5114531;28;20034;-58
2023/08/04 09:13:32;;;;;;;10.57;5.25;;;36.60;41.30;;;;;;5112470;28;20104;-58
2023/08/04 09:15:59;;;;;;;14.47;5.97;;;36.40;42.80;;;;;;5089010;28;20078;-58
2023/08/04 09:18:25;;;;;;;7.00;4.57;;;36.40;41.40;;;;;;5083220;28;20473;-58
2023/08/04 09:21:02;;;;;;;7.38;4.97;;;36.80;42.20;;;;;;5080682;28;20035;-58
2023/08/04 09:23:29;;;;;;;8.90;4.80;;;36.90;41.80;;;;;;5108911;28;20165;-58
2023/08/04 09:25:55;;;;;;;8.35;5.00;;;37.30;41.40;;;;;;5092797;28;20036;-58
2023/08/04 09:28:21;;;;;;;10.77;5.30;;;36.00;42.40;;;;;;5108250;28;20024;-58
2023/08/04 09:31:08;;;;;;;9.02;4.80;;;36.00;45.30;;;;;;5113060;28;20023;-59
2023/08/04 09:33:38;;;;;;;7.65;4.75;;;36.60;44.10;;;;;;5104625;28;20023;-58
2023/08/04 09:36:09;;;;;;;7.82;5.18;;;36.20;43.00;;;;;;5110939;28;20111;-58
2023/08/04 09:38:37;;;;;;;13.18;5.60;;;36.60;42.50;;;;;;5100480;28;20028;-58
2023/08/04 09:41:10;;;;;;;6.97;4.82;;;37.10;42.60;;;;;;5103778;28;20024;-58
2023/08/04 09:43:49;;;;;;;9.65;5.10;;;37.10;41.20;;;;;;5112049;28;20472;-58
2023/08/04 09:46:19;;;;;;;15.85;6.88;;;37.40;40.90;;;;;;5074046;28;20039;-58
2023/08/04 09:48:45;;;;;;;;;;;37.40;42.40;;;;;;5074607;28;20536;-58
2023/08/04 09:51:21;;;;;;;10.50;5.45;;;37.40;40.40;;;;;;5084729;28;19912;-58
2023/08/04 09:53:49;;;;;;;10.05;4.72;;;37.70;42.20;;;;;;5087308;28;20077;-58
2023/08/04 09:56:17;;;;;;;12.95;5.82;;;37.90;40.40;;;;;;5091664;28;20381;-58
2023/08/04 09:58:44;;;;;;;11.73;5.60;;;38.10;42.30;;;;;;5090774;28;20021;-58
2023/08/04 10:01:10;;;;;;;13.15;5.22;;;38.20;41.80;;;;;;5093511;28;20024;-58
2023/08/04 10:03:48;;;;;;;10.75;5.22;;;38.60;43.40;;;;;;5088021;28;20036;-58
2023/08/04 10:06:15;;;;;;;8.35;5.60;;;38.80;39.00;;;;;;5090106;28;20164;-58
2023/08/04 10:08:41;;;;;;;15.35;6.38;;;38.70;37.50;;;;;;5093409;28;20366;-58
2023/08/04 10:11:08;;;;;;;11.57;5.40;;;38.60;39.40;;;;;;5105157;28;20050;-58
2023/08/04 10:13:46;;;;;;;8.90;4.78;;;38.20;39.80;;;;;;5110711;28;20031;-58
2023/08/04 10:16:15;;;;;;;10.70;4.88;;;38.40;40.80;;;;;;5086974;28;20028;-58
2023/08/04 10:18:55;;;;;;;;;;;38.80;41.20;;;;;;5076338;28;20040;-58
2023/08/04 10:21:32;;;;;;;10.27;5.13;;;39.30;44.10;;;;;;5093556;28;19908;-59
2023/08/04 10:23:59;;;;;;;10.93;4.85;;;39.20;37.00;;;;;;5093925;28;20115;-59
2023/08/04 10:26:25;;;;;;;7.75;5.28;;;39.50;39.30;;;;;;5096954;28;20393;-58
2023/08/04 10:29:10;;;;;;;23.17;7.43;;;39.40;35.80;;;;;;5082711;28;20476;-59
2023/08/04 10:31:45;;;;;;;8.05;4.82;;;38.60;38.70;;;;;;5104345;28;20028;-58
2023/08/04 10:34:17;;;;;;;10.43;4.80;;;39.10;36.40;;;;;;5096625;28;20377;-58
2023/08/04 10:37:06;;;;;;;7.47;4.40;;;38.70;34.00;;;;;;5097363;28;20377;-58
2023/08/04 10:39:55;;;;;;;10.40;4.88;;;38.20;35.60;;;;;;5093298;28;20024;-58
2023/08/04 10:42:21;;;;;;;9.07;5.40;;;38.70;36.30;;;;;;5096141;28;20040;-59
2023/08/04 10:45:03;;;;;;;7.10;4.15;;;39.20;36.20;;;;;;5105614;28;20039;-58
2023/08/04 10:47:32;;;;;;;9.95;4.78;;;39.80;36.60;;;;;;5097013;28;20028;-58
2023/08/04 10:49:58;;;;;;;7.45;4.38;;;40.00;36.50;;;;;;5111791;28;20032;-59
2023/08/04 10:52:26;;;;;;;7.82;4.20;;;39.50;35.30;;;;;;5115151;28;20027;-59
2023/08/04 10:54:52;;;;;;;6.65;4.30;;;39.70;35.60;;;;;;5116140;28;20019;-58
2023/08/04 10:57:21;;;;;;;6.38;4.60;;;40.00;34.30;;;;;;5111164;28;20472;-58
2023/08/04 10:59:51;;;;;;;10.57;4.70;;;39.50;36.80;;;;;;5109009;28;20028;-58
2023/08/04 11:02:19;;;;;;;;;;;39.10;36.90;;;;;;5098075;28;20104;-58
2023/08/04 11:04:47;;;;;;;9.37;5.20;;;38.30;37.50;;;;;;5096766;28;20220;-58
2023/08/04 11:07:15;;;;;;;11.60;5.25;;;38.80;38.30;;;;;;5096908;28;20508;-58
2023/08/04 11:09:42;;;;;;;9.43;4.75;;;39.40;37.50;;;;;;5106979;28;20492;-58
2023/08/04 11:12:09;;;;;;;12.68;5.10;;;39.30;38.40;;;;;;5116452;28;20074;-59
2023/08/04 11:14:36;;;;;;;6.38;4.60;;;39.80;36.90;;;;;;5110594;28;20035;-59
2023/08/04 11:17:03;;;;;;;9.63;4.95;;;40.00;39.10;;;;;;5102229;28;20431;-58
2023/08/04 11:19:29;;;;;;;6.57;5.22;;;40.00;36.50;;;;;;5094607;28;20039;-58
2023/08/04 11:21:55;;;;;;;10.32;5.47;;;40.40;35.40;;;;;;5097026;28;20085;-58
2023/08/04 11:24:24;;;;;;;16.02;5.82;;;39.60;34.40;;;;;;5096543;28;20059;-59
2023/08/04 11:26:54;;;;;;;7.72;5.30;;;39.50;36.10;;;;;;5096823;28;20028;-58
2023/08/04 11:29:20;;;;;;;10.80;6.65;;;38.60;35.90;;;;;;5096506;28;20028;-58
2023/08/04 11:31:48;;;;;;;14.13;5.65;;;38.80;38.30;;;;;;5096090;28;20028;-58
2023/08/04 11:34:14;;;;;;;10.48;5.95;;;37.80;38.10;;;;;;5095951;28;20458;-58
2023/08/04 11:36:46;;;;;;;12.85;6.05;;;37.80;39.10;;;;;;5098826;28;20032;-59
2023/08/04 11:39:12;;;;;;;10.25;6.03;;;38.60;39.20;;;;;;5115282;28;20499;-58
2023/08/04 11:41:38;;;;;;;18.48;6.30;;;39.30;40.20;;;;;;5116312;28;20063;-58
2023/08/04 11:44:05;;;;;;;8.77;6.25;;;39.20;35.10;;;;;;5114041;28;20037;-58
2023/08/04 11:46:31;;;;;;;10.52;5.90;;;38.90;40.50;;;;;;5096566;28;20404;-58
2023/08/04 11:48:57;;;;;;;10.60;6.38;;;38.30;38.60;;;;;;5096365;28;20060;-58
2023/08/04 11:51:23;;;;;;;7.05;5.25;;;37.70;38.00;;;;;;5097135;28;20078;-58
2023/08/04 11:53:49;;;;;;;16.67;7.78;;;36.80;40.30;;;;;;5098248;28;20428;-58
2023/08/04 11:56:22;;;;;;;12.25;6.20;;;37.20;40.80;;;;;;5115799;28;20047;-58
2023/08/04 11:58:53;;;;;;;10.45;6.07;;;37.30;39.00;;;;;;5116602;28;20024;-58
2023/08/04 12:01:28;;;;;;;10.43;6.28;;;38.20;42.70;;;;;;5116389;28;20032;-58
2023/08/04 12:03:54;;;;;;;8.52;5.93;;;38.60;41.20;;;;;;5110499;28;20031;-59
2023/08/04 12:06:22;;;;;;;11.25;5.90;;;38.80;39.70;;;;;;5116383;28;20038;-58
2023/08/04 12:09:00;;;;;;;9.85;5.93;;;39.20;40.30;;;;;;5116264;28;20024;-58
2023/08/04 12:11:27;;;;;;;9.77;5.93;;;39.40;38.40;;;;;;5112612;28;20015;-58
2023/08/04 12:14:10;;;;;;;9.73;5.70;;;39.40;39.60;;;;;;5113884;28;20055;-58
2023/08/04 12:17:00;;;;;;;10.30;5.47;;;39.30;37.30;;;;;;5114194;28;20031;-58
2023/08/04 12:19:28;;;;;;;13.35;6.68;;;39.50;37.80;;;;;;5111463;28;20477;-58
2023/08/04 12:21:58;;;;;;;10.73;5.85;;;39.50;39.50;;;;;;5115747;28;20693;-58
2023/08/04 12:24:24;;;;;;;12.27;5.90;;;39.40;38.40;;;;;;5110752;28;20039;-58
2023/08/04 12:26:51;;;;;;;11.07;7.50;;;39.70;37.20;;;;;;5115119;28;20024;-58
2023/08/04 12:29:17;;;;;;;9.40;6.32;;;39.40;37.20;;;;;;5103955;28;20107;-59
2023/08/04 12:31:46;;;;;;;9.85;5.65;;;39.70;38.80;;;;;;5088849;28;20088;-58
2023/08/04 12:34:13;;;;;;;14.10;6.15;;;39.90;38.20;;;;;;5105606;28;20019;-58
2023/08/04 12:36:40;;;;;;;10.05;5.47;;;40.00;35.00;;;;;;5115053;28;20041;-58
2023/08/04 12:39:08;;;;;;;12.23;5.15;;;40.00;36.00;;;;;;5063358;28;20076;-59